Winthrop Harbor, Illinois
Current Conditions -  °F | °C
As of 2:16 PM on Sunday 21 Dec 2014 (Local Time) from KUGN Reporting Station
Haze Haze  
Wind Chill: 28°   Ceiling: 3500
Heat Index: 36°   Visibility: 6mi
Dew Point: 28°   Wind: 12mph
Humidity: 73%   Direction: 170°S
Pressure: 30.06"   Gusts: NA
Location:  42.48°N, 87.82°W
Report Text: KUGN 212016Z 17010KT 6SM HZ SCT028 OVC035 02/M02 A3006 RMK AO2 T00221022
Loading
Personal Weather Stations






























Interactive Weather Map New forecast layout! Learn more

10-Day Weather Forecast

Advertisements
Track Severe Weather on mobile